Time;durP1;ratioP1;P1;durP2;ratioP2;P2;SDS_P1;SDS_P2;PMS_P1;PMS_P2;Temp;Humidity;BMP_temperature;BMP_pressure;BME280_temperature;BME280_humidity;BME280_pressure;Samples;Min_cycle;Max_cycle;Signal;HPM_P1;HPM_P2
2023/03/06 00:01:15;;;;;;;;;;;20.10;50.20;;;;;;1574832;75;1157;-60
2023/03/06 00:03:17;;;;;;;;;;;20.10;50.20;;;;;;1548200;75;669;-63
2023/03/06 00:05:19;;;;;;;;;;;20.00;50.00;;;;;;1552899;75;1939;-61
2023/03/06 00:07:21;;;;;;;;;;;20.10;50.20;;;;;;1563281;75;747;-61
2023/03/06 00:09:23;;;;;;;;;;;20.00;50.00;;;;;;1546025;75;1518;-61
2023/03/06 00:11:25;;;;;;;;;;;20.00;50.10;;;;;;1562647;75;1204;-61
2023/03/06 00:13:29;;;;;;;;;;;20.00;50.10;;;;;;1566795;75;762;-61
2023/03/06 00:15:30;;;;;;;;;;;20.00;50.10;;;;;;1560793;74;1462;-61
2023/03/06 00:17:32;;;;;;;;;;;20.10;50.30;;;;;;1556565;75;800;-62
2023/03/06 00:19:34;;;;;;;;;;;20.00;50.10;;;;;;1548398;75;675;-60
2023/03/06 00:21:36;;;;;;;;;;;20.10;50.20;;;;;;1555481;75;1165;-61
2023/03/06 00:23:38;;;;;;;;;;;20.00;50.10;;;;;;1555669;75;1313;-61
2023/03/06 00:25:43;;;;;;;;;;;20.10;50.20;;;;;;1555478;75;1955;-61
2023/03/06 00:27:45;;;;;;;;;;;20.10;50.20;;;;;;1501992;77;713;-61
2023/03/06 00:29:51;;;;;;;;;;;20.00;50.10;;;;;;1495730;79;737;-61
2023/03/06 00:31:50;;;;;;;;;;;20.00;50.10;;;;;;1497990;78;1204;-60
2023/03/06 00:33:52;;;;;;;;;;;20.10;50.20;;;;;;1500502;79;737;-60
2023/03/06 00:35:54;;;;;;;;;;;20.00;50.10;;;;;;1498380;78;904;-61
2023/03/06 00:37:58;;;;;;;;;;;20.00;50.20;;;;;;1500260;78;1326;-61
2023/03/06 00:39:59;;;;;;;;;;;20.00;50.10;;;;;;1499968;79;1702;-61
2023/03/06 00:42:01;;;;;;;;;;;20.10;50.20;;;;;;1501163;77;1155;-61
2023/03/06 00:44:03;;;;;;;;;;;20.00;50.10;;;;;;1501659;78;674;-61
2023/03/06 00:46:05;;;;;;;;;;;20.10;50.30;;;;;;1499716;79;735;-61
2023/03/06 00:48:07;;;;;;;;;;;20.00;50.30;;;;;;1499384;79;880;-61
2023/03/06 00:50:09;;;;;;;;;;;20.00;50.30;;;;;;1503019;79;665;-61
2023/03/06 00:52:11;;;;;;;;;;;20.00;50.20;;;;;;1492000;79;1363;-62
2023/03/06 00:54:13;;;;;;;;;;;20.00;50.30;;;;;;1498560;79;794;-60
2023/03/06 00:56:15;;;;;;;;;;;20.00;50.20;;;;;;1547103;75;720;-62
2023/03/06 00:58:17;;;;;;;;;;;20.00;50.20;;;;;;1554689;75;732;-62
2023/03/06 01:00:19;;;;;;;;;;;20.00;50.20;;;;;;1557624;74;711;-61
2023/03/06 01:02:21;;;;;;;;;;;20.00;50.20;;;;;;1567879;75;1128;-60
2023/03/06 01:04:22;;;;;;;;;;;20.00;50.10;;;;;;1577174;75;1923;-61
2023/03/06 01:06:24;;;;;;;;;;;20.00;50.20;;;;;;1549004;75;1582;-61
2023/03/06 01:08:26;;;;;;;;;;;20.10;50.30;;;;;;1540600;75;791;-61
2023/03/06 01:10:28;;;;;;;;;;;20.00;50.10;;;;;;1554195;75;714;-61
2023/03/06 01:12:30;;;;;;;;;;;20.10;50.40;;;;;;1564133;75;1162;-60
2023/03/06 01:14:32;;;;;;;;;;;20.00;50.20;;;;;;1548864;75;725;-61
2023/03/06 01:16:34;;;;;;;;;;;20.00;50.20;;;;;;1561560;75;717;-60
2023/03/06 01:18:36;;;;;;;;;;;20.10;50.40;;;;;;1565005;75;707;-59
2023/03/06 01:20:38;;;;;;;;;;;20.00;50.20;;;;;;1569595;75;1562;-58
2023/03/06 01:22:39;;;;;;;;;;;20.00;50.30;;;;;;1545212;75;1138;-58
2023/03/06 01:24:41;;;;;;;;;;;20.00;50.30;;;;;;1559537;75;1946;-58
2023/03/06 01:26:43;;;;;;;;;;;20.00;50.20;;;;;;1551534;75;768;-57
2023/03/06 01:28:45;;;;;;;;;;;19.90;50.40;;;;;;1558123;75;792;-58
2023/03/06 01:30:47;;;;;;;;;;;20.00;50.30;;;;;;1557110;75;784;-59
2023/03/06 01:32:49;;;;;;;;;;;20.00;50.50;;;;;;1554412;75;1160;-59
2023/03/06 01:34:51;;;;;;;;;;;19.90;50.50;;;;;;1560777;75;1428;-58
2023/03/06 01:36:52;;;;;;;;;;;19.90;50.50;;;;;;1551202;75;645;-59
2023/03/06 01:38:54;;;;;;;;;;;20.00;50.50;;;;;;1506442;77;668;-58
2023/03/06 01:40:56;;;;;;;;;;;19.90;50.50;;;;;;1543695;74;1217;-58
2023/03/06 01:42:58;;;;;;;;;;;19.90;50.50;;;;;;1553516;74;699;-58
2023/03/06 01:45:05;;;;;;;;;;;20.00;50.50;;;;;;1554806;75;1955;-58
2023/03/06 01:47:06;;;;;;;;;;;20.00;50.50;;;;;;1487981;75;1063;-61
2023/03/06 01:49:25;;;;;;;;;;;20.00;50.50;;;;;;1553469;75;1618;-60
2023/03/06 01:51:29;;;;;;;;;;;19.90;50.40;;;;;;1550705;75;1710;-60
2023/03/06 01:53:31;;;;;;;;;;;19.90;50.50;;;;;;1556676;74;1863;-60
2023/03/06 01:55:33;;;;;;;;;;;19.90;50.50;;;;;;1555336;75;769;-60
2023/03/06 01:57:36;;;;;;;;;;;20.00;50.30;;;;;;1541798;75;751;-61
2023/03/06 01:59:38;;;;;;;;;;;19.90;50.40;;;;;;1553626;75;778;-61
2023/03/06 02:01:40;;;;;;;;;;;20.00;50.40;;;;;;1557446;75;1600;-61
2023/03/06 02:03:42;;;;;;;;;;;19.90;50.40;;;;;;1559287;75;679;-61
2023/03/06 02:05:44;;;;;;;;;;;20.00;50.40;;;;;;1544831;75;1942;-60
2023/03/06 02:07:46;;;;;;;;;;;19.90;50.50;;;;;;1554671;75;711;-64
2023/03/06 02:09:48;;;;;;;;;;;19.90;50.40;;;;;;1566861;75;691;-60
2023/03/06 02:11:49;;;;;;;;;;;20.00;50.50;;;;;;1567379;75;1193;-60
2023/03/06 02:13:51;;;;;;;;;;;20.00;50.50;;;;;;1557604;75;731;-60
2023/03/06 02:15:53;;;;;;;;;;;19.90;50.50;;;;;;1548962;75;1314;-60
2023/03/06 02:17:55;;;;;;;;;;;20.00;50.50;;;;;;1567477;75;693;-62
2023/03/06 02:20:05;;;;;;;;;;;19.90;50.50;;;;;;1544487;75;708;-61
2023/03/06 02:22:07;;;;;;;;;;;19.90;50.50;;;;;;1560985;75;1971;-60
2023/03/06 02:24:13;;;;;;;;;;;19.90;50.50;;;;;;1563740;75;852;-60
2023/03/06 02:26:15;;;;;;;;;;;19.90;50.50;;;;;;1565154;75;1933;-59
2023/03/06 02:28:18;;;;;;;;;;;19.90;51.10;;;;;;1567171;75;693;-59
2023/03/06 02:30:19;;;;;;;;;;;19.80;51.00;;;;;;1565984;75;1548;-60
2023/03/06 02:32:21;;;;;;;;;;;19.80;51.40;;;;;;1557840;75;1135;-59
2023/03/06 02:34:25;;;;;;;;;;;19.70;51.30;;;;;;1553734;75;763;-60
2023/03/06 02:36:27;;;;;;;;;;;19.70;51.40;;;;;;1555210;75;782;-59
2023/03/06 02:38:30;;;;;;;;;;;19.80;51.20;;;;;;1571835;74;697;-61
2023/03/06 02:40:32;;;;;;;;;;;19.80;51.20;;;;;;1557569;75;909;-60
2023/03/06 02:42:34;;;;;;;;;;;19.80;51.10;;;;;;1562960;75;1100;-59
2023/03/06 02:44:36;;;;;;;;;;;19.80;51.10;;;;;;1556971;74;1588;-61
2023/03/06 02:46:38;;;;;;;;;;;19.80;51.00;;;;;;1501802;77;1918;-60
2023/03/06 02:48:39;;;;;;;;;;;19.80;51.00;;;;;;1502487;79;771;-60
2023/03/06 02:50:41;;;;;;;;;;;19.90;51.00;;;;;;1502224;78;733;-61
2023/03/06 02:52:43;;;;;;;;;;;19.80;51.10;;;;;;1500807;79;1115;-60
2023/03/06 02:54:45;;;;;;;;;;;19.80;50.90;;;;;;1490916;78;726;-60
2023/03/06 02:56:47;;;;;;;;;;;19.80;51.40;;;;;;1505417;79;742;-61
2023/03/06 02:58:49;;;;;;;;;;;19.80;51.20;;;;;;1560597;75;1515;-60
2023/03/06 03:00:51;;;;;;;;;;;19.80;51.30;;;;;;1569736;75;790;-61
2023/03/06 03:02:52;;;;;;;;;;;19.80;51.20;;;;;;1551412;75;1138;-60
2023/03/06 03:04:54;;;;;;;;;;;19.70;51.40;;;;;;1545176;75;739;-61
2023/03/06 03:06:56;;;;;;;;;;;19.80;51.30;;;;;;1563985;75;1109;-60
2023/03/06 03:08:58;;;;;;;;;;;19.80;51.10;;;;;;1555804;75;744;-60
2023/03/06 03:11:00;;;;;;;;;;;19.80;51.10;;;;;;1566233;75;1156;-60
2023/03/06 03:13:02;;;;;;;;;;;19.80;51.10;;;;;;1566028;75;1545;-60
2023/03/06 03:15:04;;;;;;;;;;;19.80;50.90;;;;;;1565377;75;813;-60
2023/03/06 03:17:06;;;;;;;;;;;19.80;50.90;;;;;;1557842;75;750;-60
2023/03/06 03:19:08;;;;;;;;;;;19.80;50.80;;;;;;1559803;75;664;-60
2023/03/06 03:21:11;;;;;;;;;;;19.90;50.90;;;;;;1555010;75;1128;-60
2023/03/06 03:23:13;;;;;;;;;;;19.80;50.70;;;;;;1563668;75;612;-62
2023/03/06 03:25:15;;;;;;;;;;;19.90;50.90;;;;;;1560409;75;1937;-62
2023/03/06 03:27:17;;;;;;;;;;;19.80;50.90;;;;;;1559457;75;1570;-60
2023/03/06 03:29:19;;;;;;;;;;;19.80;50.90;;;;;;1556393;75;732;-59
2023/03/06 03:31:21;;;;;;;;;;;19.80;50.80;;;;;;1558144;75;1139;-60
2023/03/06 03:33:23;;;;;;;;;;;19.80;50.90;;;;;;1564172;74;892;-60
2023/03/06 03:35:25;;;;;;;;;;;19.80;51.00;;;;;;1565174;74;790;-61
2023/03/06 03:37:27;;;;;;;;;;;19.70;51.00;;;;;;1553194;74;776;-60
2023/03/06 03:39:29;;;;;;;;;;;19.80;51.10;;;;;;1564245;75;730;-59
2023/03/06 03:41:31;;;;;;;;;;;19.80;51.30;;;;;;1556407;74;1543;-59
2023/03/06 03:43:33;;;;;;;;;;;19.70;51.20;;;;;;1553984;75;762;-59
2023/03/06 03:45:35;;;;;;;;;;;19.70;51.20;;;;;;1561544;75;1949;-59
2023/03/06 03:47:37;;;;;;;;;;;19.70;51.20;;;;;;1565437;75;783;-59
2023/03/06 03:49:39;;;;;;;;;;;19.70;51.10;;;;;;1554845;74;721;-59
2023/03/06 03:51:41;;;;;;;;;;;19.70;51.20;;;;;;1567975;74;1109;-60
2023/03/06 03:53:43;;;;;;;;;;;19.80;51.00;;;;;;1567402;75;687;-59
2023/03/06 03:55:46;;;;;;;;;;;19.80;51.00;;;;;;1560482;75;1579;-59
2023/03/06 03:57:48;;;;;;;;;;;19.80;50.90;;;;;;1566425;75;694;-59
2023/03/06 03:59:50;;;;;;;;;;;19.80;51.10;;;;;;1559038;75;749;-61
2023/03/06 04:01:54;;;;;;;;;;;19.80;51.00;;;;;;1568947;75;1116;-60
2023/03/06 04:03:55;;;;;;;;;;;19.80;51.00;;;;;;1566006;75;1682;-60
2023/03/06 04:05:57;;;;;;;;;;;19.80;51.00;;;;;;1554613;74;1947;-59
2023/03/06 04:08:01;;;;;;;;;;;19.80;51.00;;;;;;1568084;74;1552;-59
2023/03/06 04:10:02;;;;;;;;;;;19.80;50.90;;;;;;1557065;75;1704;-60
2023/03/06 04:12:05;;;;;;;;;;;19.80;51.10;;;;;;1560635;75;1160;-61
2023/03/06 04:14:08;;;;;;;;;;;19.70;50.90;;;;;;1560471;75;723;-60
2023/03/06 04:16:10;;;;;;;;;;;19.80;51.00;;;;;;1560045;75;718;-60
2023/03/06 04:18:12;;;;;;;;;;;19.80;51.00;;;;;;1557003;75;661;-60
2023/03/06 04:20:14;;;;;;;;;;;19.80;51.00;;;;;;1566479;75;814;-60
2023/03/06 04:22:16;;;;;;;;;;;19.80;51.00;;;;;;1555459;75;1541;-59
2023/03/06 04:24:17;;;;;;;;;;;19.80;51.00;;;;;;1572086;75;795;-60
2023/03/06 04:26:19;;;;;;;;;;;19.80;51.00;;;;;;1555376;75;1947;-60
2023/03/06 04:28:21;;;;;;;;;;;19.80;51.10;;;;;;1556606;75;744;-60
2023/03/06 04:30:23;;;;;;;;;;;19.80;51.10;;;;;;1559791;75;714;-60
2023/03/06 04:32:25;;;;;;;;;;;19.80;51.00;;;;;;1560576;75;1123;-60
2023/03/06 04:34:27;;;;;;;;;;;19.80;51.00;;;;;;1554708;75;735;-60
2023/03/06 04:36:30;;;;;;;;;;;19.80;51.00;;;;;;1565309;75;1511;-61
2023/03/06 04:38:32;;;;;;;;;;;19.70;51.10;;;;;;1564562;75;696;-61
2023/03/06 04:40:34;;;;;;;;;;;19.70;51.00;;;;;;1563334;74;762;-61
2023/03/06 04:42:36;;;;;;;;;;;19.80;51.00;;;;;;1572832;74;1113;-60
2023/03/06 04:44:38;;;;;;;;;;;19.80;51.10;;;;;;1552949;75;670;-60
2023/03/06 04:46:40;;;;;;;;;;;19.80;51.10;;;;;;1548025;75;1907;-60
2023/03/06 04:48:42;;;;;;;;;;;19.80;51.10;;;;;;1554476;75;710;-63
2023/03/06 04:50:44;;;;;;;;;;;19.80;51.10;;;;;;1563507;75;1324;-60
2023/03/06 04:52:46;;;;;;;;;;;19.70;51.10;;;;;;1557328;75;1143;-60
2023/03/06 04:54:48;;;;;;;;;;;19.80;51.10;;;;;;1559278;74;750;-59
2023/03/06 04:56:50;;;;;;;;;;;19.70;51.20;;;;;;1567073;75;731;-60
2023/03/06 04:58:51;;;;;;;;;;;19.80;51.20;;;;;;1566552;75;856;-60
2023/03/06 05:00:53;;;;;;;;;;;19.70;51.20;;;;;;1569132;75;734;-61
2023/03/06 05:02:55;;;;;;;;;;;19.80;51.20;;;;;;1562943;75;797;-59
2023/03/06 05:04:57;;;;;;;;;;;19.80;51.30;;;;;;1557592;75;1552;-61
2023/03/06 05:06:59;;;;;;;;;;;19.70;51.40;;;;;;1567380;75;1942;-61
2023/03/06 05:09:01;;;;;;;;;;;19.80;51.50;;;;;;1557680;75;1055;-60
2023/03/06 05:11:03;;;;;;;;;;;19.80;51.50;;;;;;1549244;75;1143;-60
2023/03/06 05:13:05;;;;;;;;;;;19.80;51.70;;;;;;1547835;75;787;-60
2023/03/06 05:15:07;;;;;;;;;;;19.70;51.70;;;;;;1560438;75;621;-60
2023/03/06 05:17:09;;;;;;;;;;;19.70;51.70;;;;;;1553508;75;691;-60
2023/03/06 05:19:11;;;;;;;;;;;19.70;51.80;;;;;;1552434;75;1547;-60
2023/03/06 05:21:12;;;;;;;;;;;19.70;51.80;;;;;;1551141;75;1141;-59
2023/03/06 05:23:14;;;;;;;;;;;19.70;52.30;;;;;;1559024;75;715;-60
2023/03/06 05:25:16;;;;;;;;;;;19.60;52.90;;;;;;1557609;75;743;-60
2023/03/06 05:27:18;;;;;;;;;;;19.50;53.20;;;;;;1561058;75;1930;-60
2023/03/06 05:29:20;;;;;;;;;;;19.50;52.90;;;;;;1550476;75;697;-59
2023/03/06 05:31:22;;;;;;;;;;;19.50;53.40;;;;;;1560652;75;1153;-61
2023/03/06 05:33:25;;;;;;;;;;;19.50;52.80;;;;;;1553062;75;1580;-59
2023/03/06 05:35:27;;;;;;;;;;;19.50;52.80;;;;;;1561910;75;796;-59
2023/03/06 05:37:29;;;;;;;;;;;19.60;52.50;;;;;;1553341;75;717;-59
2023/03/06 05:39:30;;;;;;;;;;;19.60;52.50;;;;;;1514188;77;788;-59
2023/03/06 05:41:32;;;;;;;;;;;19.60;52.80;;;;;;1557077;74;1148;-59
2023/03/06 05:43:34;;;;;;;;;;;19.60;52.90;;;;;;1567825;75;801;-61
2023/03/06 05:45:36;;;;;;;;;;;19.60;53.00;;;;;;1555577;75;717;-60
2023/03/06 05:47:38;;;;;;;;;;;19.60;52.90;;;;;;1552005;75;1938;-59
2023/03/06 05:49:40;;;;;;;;;;;19.60;52.90;;;;;;1561745;75;916;-59
2023/03/06 05:51:42;;;;;;;;;;;19.60;52.70;;;;;;1563897;75;1113;-60
2023/03/06 05:53:44;;;;;;;;;;;19.70;52.50;;;;;;1557685;75;662;-60
2023/03/06 05:55:48;;;;;;;;;;;19.70;52.30;;;;;;1565378;75;814;-60
2023/03/06 05:57:53;;;;;;;;;;;19.70;52.30;;;;;;1553246;75;2067;-60
2023/03/06 05:59:55;;;;;;;;;;;19.70;52.10;;;;;;1555594;75;729;-60
2023/03/06 06:01:58;;;;;;;;;;;19.70;52.00;;;;;;1567332;75;1577;-59
2023/03/06 06:04:02;;;;;;;;;;;19.80;51.90;;;;;;1553196;75;750;-60
2023/03/06 06:06:05;;;;;;;;;;;19.80;52.00;;;;;;1561826;75;1948;-59
2023/03/06 06:08:06;;;;;;;;;;;19.70;51.80;;;;;;1553720;75;1084;-60
2023/03/06 06:10:09;;;;;;;;;;;19.80;51.80;;;;;;1547912;75;749;-61
2023/03/06 06:12:11;;;;;;;;;;;19.80;51.70;;;;;;1560141;75;1169;-60
2023/03/06 06:14:13;;;;;;;;;;;19.70;51.80;;;;;;1555686;75;800;-61
2023/03/06 06:16:15;;;;;;;;;;;19.70;51.80;;;;;;1554659;75;1684;-62
2023/03/06 06:18:17;;;;;;;;;;;19.70;51.80;;;;;;1557278;75;730;-59
2023/03/06 06:20:19;;;;;;;;;;;19.70;51.70;;;;;;1552155;75;789;-60
2023/03/06 06:22:21;;;;;;;;;;;19.70;51.80;;;;;;1553400;75;1132;-59
2023/03/06 06:24:23;;;;;;;;;;;19.80;51.70;;;;;;1547368;75;769;-59
2023/03/06 06:26:25;;;;;;;;;;;19.70;51.50;;;;;;1557661;75;1939;-60
2023/03/06 06:28:27;;;;;;;;;;;19.80;52.00;;;;;;1560795;75;710;-61
2023/03/06 06:30:30;;;;;;;;;;;19.80;52.20;;;;;;1564609;75;1568;-60
2023/03/06 06:32:31;;;;;;;;;;;19.60;52.60;;;;;;1555693;75;1141;-59
2023/03/06 06:34:33;;;;;;;;;;;19.70;53.10;;;;;;1567084;75;775;-60
2023/03/06 06:36:35;;;;;;;;;;;19.60;53.30;;;;;;1554150;75;713;-60
2023/03/06 06:38:37;;;;;;;;;;;19.70;53.10;;;;;;1562331;75;742;-59
2023/03/06 06:40:39;;;;;;;;;;;19.70;53.00;;;;;;1559895;74;701;-59
2023/03/06 06:42:41;;;;;;;;;;;19.70;53.00;;;;;;1570898;74;1139;-60
2023/03/06 06:44:43;;;;;;;;;;;19.70;52.80;;;;;;1547591;75;1313;-61
2023/03/06 06:46:45;;;;;;;;;;;19.70;53.20;;;;;;1550030;75;1943;-61
2023/03/06 06:48:48;;;;;;;;;;;19.70;53.00;;;;;;1553475;75;734;-62
2023/03/06 06:50:59;;;;;;;;;;;19.70;52.80;;;;;;1552846;75;895;-60
2023/03/06 06:53:00;;;;;;;;;;;19.80;52.70;;;;;;1560010;76;734;-62
2023/03/06 06:55:02;;;;;;;;;;;19.80;52.70;;;;;;1549418;75;729;-62
2023/03/06 06:57:04;;;;;;;;;;;19.80;52.40;;;;;;1551225;75;1440;-61
2023/03/06 06:59:06;;;;;;;;;;;19.80;51.70;;;;;;1562584;75;724;-64
2023/03/06 07:01:09;;;;;;;;;;;19.90;51.70;;;;;;1560663;74;1118;-61
2023/03/06 07:03:14;;;;;;;;;;;19.80;51.50;;;;;;1557791;75;651;-60
2023/03/06 07:05:16;;;;;;;;;;;19.90;51.60;;;;;;1560010;75;698;-60
2023/03/06 07:07:17;;;;;;;;;;;19.80;51.50;;;;;;1569635;75;1913;-62
2023/03/06 07:09:21;;;;;;;;;;;19.90;51.70;;;;;;1553491;74;933;-62
2023/03/06 07:11:23;;;;;;;;;;;19.90;51.70;;;;;;1563337;74;1566;-60
2023/03/06 07:13:24;;;;;;;;;;;19.80;51.60;;;;;;1559939;74;743;-60
2023/03/06 07:15:28;;;;;;;;;;;19.80;51.60;;;;;;1560941;74;779;-61
2023/03/06 07:17:30;;;;;;;;;;;19.80;51.60;;;;;;1553680;74;752;-62
2023/03/06 07:19:32;;;;;;;;;;;19.80;51.60;;;;;;1562578;74;763;-60
2023/03/06 07:21:34;;;;;;;;;;;19.80;51.70;;;;;;1576203;74;1085;-61
2023/03/06 07:23:36;;;;;;;;;;;19.80;51.60;;;;;;1549113;74;757;-60
2023/03/06 07:25:37;;;;;;;;;;;19.70;51.70;;;;;;1555127;74;1560;-61
2023/03/06 07:27:39;;;;;;;;;;;19.70;51.70;;;;;;1555684;74;1943;-60
2023/03/06 07:29:44;;;;;;;;;;;19.80;51.70;;;;;;1570089;74;744;-60
2023/03/06 07:31:46;;;;;;;;;;;19.70;51.80;;;;;;1561533;74;1112;-61
2023/03/06 07:33:48;;;;;;;;;;;19.70;51.80;;;;;;1560157;74;712;-61
2023/03/06 07:35:50;;;;;;;;;;;19.70;51.90;;;;;;1564145;74;689;-61
2023/03/06 07:37:52;;;;;;;;;;;19.60;51.90;;;;;;1552116;74;1053;-62
2023/03/06 07:39:54;;;;;;;;;;;19.60;51.90;;;;;;1555478;74;1516;-62
2023/03/06 07:41:57;;;;;;;;;;;19.60;52.10;;;;;;1561295;74;1178;-61
2023/03/06 07:43:59;;;;;;;;;;;19.60;52.10;;;;;;1575989;74;674;-60
2023/03/06 07:46:01;;;;;;;;;;;19.70;52.20;;;;;;1562038;74;729;-61
2023/03/06 07:48:03;;;;;;;;;;;19.80;52.10;;;;;;1566638;74;1946;-61
2023/03/06 07:50:06;;;;;;;;;;;19.70;52.00;;;;;;1558711;74;682;-61
2023/03/06 07:52:08;;;;;;;;;;;19.70;51.90;;;;;;1565856;74;1081;-61
2023/03/06 07:54:09;;;;;;;;;;;19.80;51.90;;;;;;1556941;74;1695;-62
2023/03/06 07:56:11;;;;;;;;;;;19.80;51.80;;;;;;1557769;74;715;-61
2023/03/06 07:58:13;;;;;;;;;;;19.60;52.10;;;;;;1558723;74;630;-61
2023/03/06 08:00:15;;;;;;;;;;;19.50;52.30;;;;;;1564719;74;701;-61
2023/03/06 08:02:17;;;;;;;;;;;19.60;52.30;;;;;;1558911;74;1204;-61
2023/03/06 08:04:19;;;;;;;;;;;19.60;52.10;;;;;;1556720;74;795;-61
2023/03/06 08:06:22;;;;;;;;;;;19.70;52.10;;;;;;1546505;74;735;-61
2023/03/06 08:08:23;;;;;;;;;;;19.70;52.00;;;;;;1564185;74;1927;-61
2023/03/06 08:10:25;;;;;;;;;;;19.80;51.80;;;;;;1567511;74;1064;-62
2023/03/06 08:12:27;;;;;;;;;;;19.80;51.70;;;;;;1564755;74;1160;-60
2023/03/06 08:14:29;;;;;;;;;;;19.80;51.70;;;;;;1569687;74;691;-59
2023/03/06 08:16:31;;;;;;;;;;;19.80;51.60;;;;;;1559070;74;682;-59
2023/03/06 08:18:33;;;;;;;;;;;19.80;51.70;;;;;;1564135;74;677;-58
2023/03/06 08:20:35;;;;;;;;;;;19.80;51.70;;;;;;1554413;74;768;-59
2023/03/06 08:22:37;;;;;;;;;;;19.80;51.60;;;;;;1562555;74;1527;-59
2023/03/06 08:24:39;;;;;;;;;;;19.70;51.60;;;;;;1567021;74;781;-58
2023/03/06 08:26:40;;;;;;;;;;;19.70;51.60;;;;;;1571560;74;735;-60
2023/03/06 08:28:42;;;;;;;;;;;19.70;51.70;;;;;;1510213;77;1945;-59
2023/03/06 08:30:44;;;;;;;;;;;19.70;51.60;;;;;;1513865;77;770;-59
2023/03/06 08:32:46;;;;;;;;;;;19.70;51.60;;;;;;1505999;77;1122;-58
2023/03/06 08:34:48;;;;;;;;;;;19.70;51.60;;;;;;1571941;74;702;-59
2023/03/06 08:36:50;;;;;;;;;;;19.70;51.60;;;;;;1568424;74;1603;-60
2023/03/06 08:38:52;;;;;;;;;;;19.70;51.50;;;;;;1562753;74;769;-58
2023/03/06 08:40:54;;;;;;;;;;;19.70;51.60;;;;;;1546920;74;763;-61
2023/03/06 08:42:56;;;;;;;;;;;19.70;51.50;;;;;;1567683;74;832;-62
2023/03/06 08:44:57;;;;;;;;;;;19.80;51.50;;;;;;1552051;74;801;-61
2023/03/06 08:46:59;;;;;;;;;;;19.70;51.50;;;;;;1566987;74;1946;-61
2023/03/06 08:49:01;;;;;;;;;;;19.70;51.50;;;;;;1556358;74;671;-62
2023/03/06 08:51:03;;;;;;;;;;;19.70;51.50;;;;;;1566743;74;1328;-61
2023/03/06 08:53:05;;;;;;;;;;;19.70;51.50;;;;;;1567871;74;725;-61
2023/03/06 08:55:07;;;;;;;;;;;19.70;51.50;;;;;;1566621;74;719;-61
2023/03/06 08:57:09;;;;;;;;;;;19.70;51.50;;;;;;1569657;74;676;-61
2023/03/06 08:59:12;;;;;;;;;;;19.70;51.50;;;;;;1570097;74;829;-63
2023/03/06 09:01:14;;;;;;;;;;;19.70;51.50;;;;;;1565151;74;1128;-61
2023/03/06 09:03:16;;;;;;;;;;;19.70;51.50;;;;;;1566357;74;695;-61
2023/03/06 09:05:18;;;;;;;;;;;19.70;51.50;;;;;;1569793;74;1520;-61
2023/03/06 09:07:20;;;;;;;;;;;19.70;51.50;;;;;;1572341;74;1941;-62
2023/03/06 09:09:22;;;;;;;;;;;19.70;51.50;;;;;;1559182;74;962;-62
2023/03/06 09:11:24;;;;;;;;;;;19.70;51.50;;;;;;1563388;75;1200;-62
2023/03/06 09:13:26;;;;;;;;;;;19.70;51.50;;;;;;1555911;74;660;-61
2023/03/06 09:15:28;;;;;;;;;;;19.70;51.50;;;;;;1560102;75;676;-61
2023/03/06 09:17:30;;;;;;;;;;;19.70;51.50;;;;;;1552916;75;675;-61
2023/03/06 09:19:31;;;;;;;;;;;19.70;51.50;;;;;;1551348;75;819;-61
2023/03/06 09:21:33;;;;;;;;;;;19.70;51.50;;;;;;1564434;75;1144;-61
2023/03/06 09:23:36;;;;;;;;;;;19.70;51.50;;;;;;1554457;75;712;-61
2023/03/06 09:25:37;;;;;;;;;;;19.70;51.50;;;;;;1557239;75;620;-63
2023/03/06 09:27:39;;;;;;;;;;;19.70;51.60;;;;;;1549746;75;1948;-62
2023/03/06 09:29:41;;;;;;;;;;;19.70;51.50;;;;;;1558401;75;764;-62
2023/03/06 09:31:44;;;;;;;;;;;19.70;51.50;;;;;;1554287;75;1623;-62
2023/03/06 09:33:46;;;;;;;;;;;19.70;51.50;;;;;;1547531;75;766;-62
2023/03/06 09:35:49;;;;;;;;;;;19.70;51.50;;;;;;1550275;75;735;-62
2023/03/06 09:37:51;;;;;;;;;;;19.70;51.50;;;;;;1549374;75;706;-62
2023/03/06 09:39:53;;;;;;;;;;;19.70;51.50;;;;;;1554439;75;755;-61
2023/03/06 09:41:56;;;;;;;;;;;19.70;51.50;;;;;;1541630;74;1177;-62
2023/03/06 09:44:07;;;;;;;;;;;19.70;51.50;;;;;;1548544;75;688;-61
2023/03/06 09:46:20;;;;;;;;;;;19.70;51.50;;;;;;1558801;75;1518;-61
2023/03/06 09:48:22;;;;;;;;;;;19.70;51.50;;;;;;1552285;75;1954;-61
2023/03/06 09:50:35;;;;;;;;;;;19.70;51.50;;;;;;1559686;75;732;-61
2023/03/06 09:52:47;;;;;;;;;;;19.70;51.50;;;;;;1541604;75;1155;-61
2023/03/06 09:55:07;;;;;;;;;;;19.70;51.50;;;;;;1558083;75;782;-62
2023/03/06 09:57:19;;;;;;;;;;;19.70;51.50;;;;;;1547035;75;774;-62
2023/03/06 09:59:22;;;;;;;;;;;19.70;51.50;;;;;;1548540;75;754;-61
2023/03/06 10:01:26;;;;;;;;;;;19.70;51.50;;;;;;1551170;75;1376;-61
2023/03/06 10:03:35;;;;;;;;;;;19.70;51.50;;;;;;1561451;75;1848;-61
2023/03/06 10:05:45;;;;;;;;;;;19.70;51.50;;;;;;1558500;75;737;-61
2023/03/06 10:08:07;;;;;;;;;;;19.70;51.40;;;;;;1525540;75;1938;-61
2023/03/06 10:10:10;;;;;;;;;;;19.70;51.40;;;;;;1527244;77;1253;-60
2023/03/06 10:12:24;;;;;;;;;;;19.70;51.50;;;;;;1523062;77;1248;-61
2023/03/06 10:14:28;;;;;;;;;;;19.70;51.50;;;;;;1516754;77;1580;-61
2023/03/06 10:16:30;;;;;;;;;;;19.70;51.50;;;;;;1554474;75;950;-60
2023/03/06 10:18:37;;;;;;;;;;;19.70;51.50;;;;;;1560674;75;879;-61
2023/03/06 10:20:54;;;;;;;;;;;19.70;51.60;;;;;;1560403;75;1632;-64
2023/03/06 10:23:14;;;;;;;;;;;19.70;51.60;;;;;;1556867;75;726;-61
2023/03/06 10:25:21;;;;;;;;;;;19.70;51.60;;;;;;1562127;75;695;-61
2023/03/06 10:27:41;;;;;;;;;;;19.70;51.60;;;;;;1562510;75;1897;-61
2023/03/06 10:29:45;;;;;;;;;;;19.70;51.60;;;;;;1560897;75;1698;-60
2023/03/06 10:31:48;;;;;;;;;;;19.70;51.70;;;;;;1558899;75;1179;-60
2023/03/06 10:33:52;;;;;;;;;;;19.60;51.60;;;;;;1559722;74;1492;-61
2023/03/06 10:35:54;;;;;;;;;;;19.70;51.70;;;;;;1567138;74;1486;-60
2023/03/06 10:38:00;;;;;;;;;;;19.70;51.70;;;;;;1566663;74;1445;-61
2023/03/06 10:40:02;;;;;;;;;;;19.70;51.70;;;;;;1566448;74;1450;-59
2023/03/06 10:42:05;;;;;;;;;;;19.70;51.80;;;;;;1563533;74;1476;-59
2023/03/06 10:44:08;;;;;;;;;;;19.70;51.60;;;;;;1566624;74;1507;-59
2023/03/06 10:46:12;;;;;;;;;;;19.80;51.70;;;;;;1565575;74;1481;-60
2023/03/06 10:48:14;;;;;;;;;;;19.70;51.70;;;;;;1567380;74;1930;-60
2023/03/06 10:50:18;;;;;;;;;;;19.80;51.70;;;;;;1541244;76;1836;-60
2023/03/06 10:52:20;;;;;;;;;;;19.70;51.70;;;;;;1559423;74;1908;-60
2023/03/06 10:54:22;;;;;;;;;;;19.70;51.70;;;;;;1566498;74;668;-61
2023/03/06 10:56:31;;;;;;;;;;;19.70;51.70;;;;;;1514551;77;1580;-61
2023/03/06 10:58:32;;;;;;;;;;;19.70;51.70;;;;;;1508404;77;752;-60
2023/03/06 11:00:37;;;;;;;;;;;19.70;51.70;;;;;;1513251;78;803;-61
2023/03/06 11:02:39;;;;;;;;;;;19.70;51.70;;;;;;1504305;78;1118;-61
2023/03/06 11:04:41;;;;;;;;;;;19.70;51.80;;;;;;1502775;78;772;-60
2023/03/06 11:06:43;;;;;;;;;;;19.80;51.70;;;;;;1484632;79;727;-61
2023/03/06 11:08:45;;;;;;;;;;;19.80;51.70;;;;;;1510359;78;1966;-61
2023/03/06 11:10:48;;;;;;;;;;;19.80;51.70;;;;;;1560563;74;1578;-62
2023/03/06 11:12:52;;;;;;;;;;;19.70;51.70;;;;;;1567856;74;1875;-62
2023/03/06 11:15:08;;;;;;;;;;;19.80;51.70;;;;;;1545701;74;1840;-61
2023/03/06 11:17:11;;;;;;;;;;;19.80;51.70;;;;;;1559867;74;701;-61
2023/03/06 11:19:21;;;;;;;;;;;19.80;51.70;;;;;;1565156;74;1843;-61
2023/03/06 11:21:25;;;;;;;;;;;19.70;51.70;;;;;;1566333;74;1469;-59
2023/03/06 11:23:46;;;;;;;;;;;19.70;51.80;;;;;;1567782;74;847;-58
2023/03/06 11:25:55;;;;;;;;;;;19.70;51.80;;;;;;1566092;74;1530;-60
2023/03/06 11:28:01;;;;;;;;;;;19.70;51.70;;;;;;1564567;74;1924;-59
2023/03/06 11:30:05;;;;;;;;;;;19.70;51.70;;;;;;1558760;74;705;-59
2023/03/06 11:32:09;;;;;;;;;;;19.70;51.70;;;;;;1561898;74;1856;-60
2023/03/06 11:34:12;;;;;;;;;;;19.70;51.70;;;;;;1566665;75;1054;-58
2023/03/06 11:36:32;;;;;;;;;;;19.80;51.60;;;;;;1568294;75;679;-60
2023/03/06 11:38:51;;;;;;;;;;;19.70;51.60;;;;;;1569969;75;1591;-59
2023/03/06 11:40:53;;;;;;;;;;;19.80;51.60;;;;;;1564817;74;1125;-58
2023/03/06 11:43:03;;;;;;;;;;;19.70;51.70;;;;;;1570265;75;732;-58
2023/03/06 11:45:10;;;;;;;;;;;19.70;51.60;;;;;;1567841;75;721;-61
2023/03/06 11:47:18;;;;;;;;;;;19.70;51.60;;;;;;1564200;75;1918;-58
2023/03/06 11:49:28;;;;;;;;;;;19.80;51.60;;;;;;1571003;75;1941;-58
2023/03/06 11:51:34;;;;;;;;;;;19.70;51.60;;;;;;1562610;75;1641;-59
2023/03/06 11:53:37;;;;;;;;;;;19.60;51.50;;;;;;1563480;75;1530;-58
2023/03/06 11:55:40;;;;;;;;;;;19.70;51.60;;;;;;1562445;75;766;-58
2023/03/06 11:57:44;;;;;;;;;;;19.80;51.50;;;;;;1572826;75;695;-59
2023/03/06 11:59:48;;;;;;;;;;;19.70;51.50;;;;;;1570292;75;1500;-59
2023/03/06 12:01:51;;;;;;;;;;;19.80;51.50;;;;;;1565408;75;1267;-60
2023/03/06 12:04:11;;;;;;;;;;;19.80;51.50;;;;;;1567177;75;775;-58
2023/03/06 12:06:18;;;;;;;;;;;19.70;51.40;;;;;;1567951;74;778;-59
2023/03/06 12:08:24;;;;;;;;;;;19.80;51.40;;;;;;1566295;75;1943;-58
2023/03/06 12:10:30;;;;;;;;;;;19.80;51.50;;;;;;1567979;75;799;-60
2023/03/06 12:12:39;;;;;;;;;;;19.70;51.50;;;;;;1548358;75;1098;-58